sensor_id;sensor_type;location;lat;lon;timestamp;temperature;humidity
32811;DHT22;65470;47.324;8.548;2023-05-10T00:01:56;15.30;99.90
32811;DHT22;65470;47.324;8.548;2023-05-10T00:04:22;15.30;99.90
32811;DHT22;65470;47.324;8.548;2023-05-10T00:06:47;15.30;99.90
32811;DHT22;65470;47.324;8.548;2023-05-10T00:09:13;15.30;99.90
32811;DHT22;65470;47.324;8.548;2023-05-10T00:11:39;15.30;99.90
32811;DHT22;65470;47.324;8.548;2023-05-10T00:14:04;15.30;99.90
32811;DHT22;65470;47.324;8.548;2023-05-10T00:16:30;15.30;99.90
32811;DHT22;65470;47.324;8.548;2023-05-10T00:18:56;15.30;99.90
32811;DHT22;65470;47.324;8.548;2023-05-10T00:21:21;15.30;99.90
32811;DHT22;65470;47.324;8.548;2023-05-10T00:23:47;15.10;99.90
32811;DHT22;65470;47.324;8.548;2023-05-10T00:26:13;15.10;99.90
32811;DHT22;65470;47.324;8.548;2023-05-10T00:28:38;15.10;99.90
32811;DHT22;65470;47.324;8.548;2023-05-10T00:31:04;15.10;99.90
32811;DHT22;65470;47.324;8.548;2023-05-10T00:33:29;15.10;99.90
32811;DHT22;65470;47.324;8.548;2023-05-10T00:35:55;15.10;99.90
32811;DHT22;65470;47.324;8.548;2023-05-10T00:38:22;15.10;99.90
32811;DHT22;65470;47.324;8.548;2023-05-10T00:40:48;15.20;99.90
32811;DHT22;65470;47.324;8.548;2023-05-10T00:43:13;15.20;99.90
32811;DHT22;65470;47.324;8.548;2023-05-10T00:45:40;15.20;99.90
32811;DHT22;65470;47.324;8.548;2023-05-10T00:48:06;15.10;99.90
32811;DHT22;65470;47.324;8.548;2023-05-10T00:50:33;15.10;99.90
32811;DHT22;65470;47.324;8.548;2023-05-10T00:52:59;15.10;99.90
32811;DHT22;65470;47.324;8.548;2023-05-10T00:55:25;15.10;99.90
32811;DHT22;65470;47.324;8.548;2023-05-10T00:57:52;15.20;99.90
32811;DHT22;65470;47.324;8.548;2023-05-10T01:00:18;15.20;99.90
32811;DHT22;65470;47.324;8.548;2023-05-10T01:02:47;15.30;99.90
32811;DHT22;65470;47.324;8.548;2023-05-10T01:05:13;15.30;99.90
32811;DHT22;65470;47.324;8.548;2023-05-10T01:07:39;15.30;99.90
32811;DHT22;65470;47.324;8.548;2023-05-10T01:10:06;15.40;99.90
32811;DHT22;65470;47.324;8.548;2023-05-10T01:12:34;15.40;99.90
32811;DHT22;65470;47.324;8.548;2023-05-10T01:15:01;15.30;99.90
32811;DHT22;65470;47.324;8.548;2023-05-10T01:17:27;15.30;99.90
32811;DHT22;65470;47.324;8.548;2023-05-10T01:19:52;15.30;99.90
32811;DHT22;65470;47.324;8.548;2023-05-10T01:33:49;15.30;99.90
32811;DHT22;65470;47.324;8.548;2023-05-10T01:36:34;15.30;99.90
32811;DHT22;65470;47.324;8.548;2023-05-10T01:39:20;15.30;99.90
32811;DHT22;65470;47.324;8.548;2023-05-10T01:42:08;15.30;99.90
32811;DHT22;65470;47.324;8.548;2023-05-10T01:47:37;15.40;99.90
32811;DHT22;65470;47.324;8.548;2023-05-10T01:50:06;15.30;99.90
32811;DHT22;65470;47.324;8.548;2023-05-10T01:52:36;15.30;99.90
32811;DHT22;65470;47.324;8.548;2023-05-10T01:55:09;15.30;99.90
32811;DHT22;65470;47.324;8.548;2023-05-10T01:57:37;15.30;99.90
32811;DHT22;65470;47.324;8.548;2023-05-10T02:03:32;15.20;99.90
32811;DHT22;65470;47.324;8.548;2023-05-10T02:06:20;15.30;99.90
32811;DHT22;65470;47.324;8.548;2023-05-10T02:08:47;15.30;99.90
32811;DHT22;65470;47.324;8.548;2023-05-10T02:11:15;15.30;99.90
32811;DHT22;65470;47.324;8.548;2023-05-10T02:13:42;15.30;99.90
32811;DHT22;65470;47.324;8.548;2023-05-10T02:16:09;15.30;99.90
32811;DHT22;65470;47.324;8.548;2023-05-10T02:18:36;15.30;99.90
32811;DHT22;65470;47.324;8.548;2023-05-10T02:21:02;15.30;99.90
32811;DHT22;65470;47.324;8.548;2023-05-10T02:23:29;15.30;99.90
32811;DHT22;65470;47.324;8.548;2023-05-10T02:25:56;15.30;99.90
32811;DHT22;65470;47.324;8.548;2023-05-10T02:28:24;15.30;99.90
32811;DHT22;65470;47.324;8.548;2023-05-10T02:30:51;15.20;99.90
32811;DHT22;65470;47.324;8.548;2023-05-10T02:33:19;15.20;99.90
32811;DHT22;65470;47.324;8.548;2023-05-10T02:35:46;15.20;99.90
32811;DHT22;65470;47.324;8.548;2023-05-10T02:38:14;15.20;99.90
32811;DHT22;65470;47.324;8.548;2023-05-10T02:40:41;15.20;99.90
32811;DHT22;65470;47.324;8.548;2023-05-10T02:43:12;15.20;99.90
32811;DHT22;65470;47.324;8.548;2023-05-10T02:45:38;15.20;99.90
32811;DHT22;65470;47.324;8.548;2023-05-10T02:48:05;15.10;99.90
32811;DHT22;65470;47.324;8.548;2023-05-10T02:50:33;15.00;99.90
32811;DHT22;65470;47.324;8.548;2023-05-10T02:53:00;15.00;99.90
32811;DHT22;65470;47.324;8.548;2023-05-10T02:55:36;15.00;99.90
32811;DHT22;65470;47.324;8.548;2023-05-10T02:58:03;14.80;99.90
32811;DHT22;65470;47.324;8.548;2023-05-10T03:00:29;14.90;99.90
32811;DHT22;65470;47.324;8.548;2023-05-10T03:02:55;14.90;99.90
32811;DHT22;65470;47.324;8.548;2023-05-10T03:05:21;15.00;99.90
32811;DHT22;65470;47.324;8.548;2023-05-10T03:07:46;15.00;99.90
32811;DHT22;65470;47.324;8.548;2023-05-10T03:10:12;14.90;99.90
32811;DHT22;65470;47.324;8.548;2023-05-10T03:13:25;15.00;99.90
32811;DHT22;65470;47.324;8.548;2023-05-10T03:18:17;15.00;99.90
32811;DHT22;65470;47.324;8.548;2023-05-10T03:20:57;15.00;99.90
32811;DHT22;65470;47.324;8.548;2023-05-10T03:26:06;15.10;99.90
32811;DHT22;65470;47.324;8.548;2023-05-10T03:28:34;15.10;99.90
32811;DHT22;65470;47.324;8.548;2023-05-10T03:31:00;15.10;99.90
32811;DHT22;65470;47.324;8.548;2023-05-10T03:33:26;15.10;99.90
32811;DHT22;65470;47.324;8.548;2023-05-10T03:35:51;15.10;99.90
32811;DHT22;65470;47.324;8.548;2023-05-10T03:38:17;15.10;99.90
32811;DHT22;65470;47.324;8.548;2023-05-10T03:40:43;15.00;99.90
32811;DHT22;65470;47.324;8.548;2023-05-10T03:43:08;15.00;99.90
32811;DHT22;65470;47.324;8.548;2023-05-10T03:45:34;15.00;99.90
32811;DHT22;65470;47.324;8.548;2023-05-10T03:48:00;15.10;99.90
32811;DHT22;65470;47.324;8.548;2023-05-10T03:50:25;15.00;99.90
32811;DHT22;65470;47.324;8.548;2023-05-10T03:52:51;15.00;99.90
32811;DHT22;65470;47.324;8.548;2023-05-10T03:55:17;15.00;99.90
32811;DHT22;65470;47.324;8.548;2023-05-10T03:57:43;15.00;99.90
32811;DHT22;65470;47.324;8.548;2023-05-10T04:00:09;15.00;99.90
32811;DHT22;65470;47.324;8.548;2023-05-10T04:02:35;15.00;99.90
32811;DHT22;65470;47.324;8.548;2023-05-10T04:05:01;15.00;99.90
32811;DHT22;65470;47.324;8.548;2023-05-10T04:07:26;14.90;99.90
32811;DHT22;65470;47.324;8.548;2023-05-10T04:09:52;15.00;99.90
32811;DHT22;65470;47.324;8.548;2023-05-10T04:12:17;14.90;99.90
32811;DHT22;65470;47.324;8.548;2023-05-10T04:14:43;14.90;99.90
32811;DHT22;65470;47.324;8.548;2023-05-10T04:17:09;14.90;99.90
32811;DHT22;65470;47.324;8.548;2023-05-10T04:19:34;14.90;99.90
32811;DHT22;65470;47.324;8.548;2023-05-10T04:22:01;14.90;99.90
32811;DHT22;65470;47.324;8.548;2023-05-10T04:24:27;14.90;99.90
32811;DHT22;65470;47.324;8.548;2023-05-10T04:26:54;14.90;99.90
32811;DHT22;65470;47.324;8.548;2023-05-10T04:29:19;14.80;99.90
32811;DHT22;65470;47.324;8.548;2023-05-10T04:31:45;14.80;99.90
32811;DHT22;65470;47.324;8.548;2023-05-10T04:34:11;14.80;99.90
32811;DHT22;65470;47.324;8.548;2023-05-10T04:36:36;14.70;99.90
32811;DHT22;65470;47.324;8.548;2023-05-10T04:39:03;14.70;99.90
32811;DHT22;65470;47.324;8.548;2023-05-10T04:41:29;14.50;99.90
32811;DHT22;65470;47.324;8.548;2023-05-10T04:43:55;14.30;99.90
32811;DHT22;65470;47.324;8.548;2023-05-10T04:46:20;14.20;99.90
32811;DHT22;65470;47.324;8.548;2023-05-10T04:48:46;14.10;99.90
32811;DHT22;65470;47.324;8.548;2023-05-10T04:51:11;14.10;99.90
32811;DHT22;65470;47.324;8.548;2023-05-10T04:53:37;14.10;99.90
32811;DHT22;65470;47.324;8.548;2023-05-10T04:56:03;14.10;99.90
32811;DHT22;65470;47.324;8.548;2023-05-10T04:58:29;14.20;99.90
32811;DHT22;65470;47.324;8.548;2023-05-10T05:00:55;14.10;99.90
32811;DHT22;65470;47.324;8.548;2023-05-10T05:03:20;14.10;99.90
32811;DHT22;65470;47.324;8.548;2023-05-10T05:05:46;14.30;99.90
32811;DHT22;65470;47.324;8.548;2023-05-10T05:08:11;14.30;99.90
32811;DHT22;65470;47.324;8.548;2023-05-10T05:10:38;14.40;99.90
32811;DHT22;65470;47.324;8.548;2023-05-10T05:13:03;14.30;99.90
32811;DHT22;65470;47.324;8.548;2023-05-10T05:15:29;14.30;99.90
32811;DHT22;65470;47.324;8.548;2023-05-10T05:17:55;14.40;99.90
32811;DHT22;65470;47.324;8.548;2023-05-10T05:20:21;14.40;99.90
32811;DHT22;65470;47.324;8.548;2023-05-10T05:22:47;14.50;99.90
32811;DHT22;65470;47.324;8.548;2023-05-10T05:25:12;14.50;99.90
32811;DHT22;65470;47.324;8.548;2023-05-10T05:27:38;14.60;99.90
32811;DHT22;65470;47.324;8.548;2023-05-10T05:30:04;14.70;99.90
32811;DHT22;65470;47.324;8.548;2023-05-10T05:32:30;14.70;99.90
32811;DHT22;65470;47.324;8.548;2023-05-10T05:34:56;14.70;99.90
32811;DHT22;65470;47.324;8.548;2023-05-10T05:37:22;14.70;99.90
32811;DHT22;65470;47.324;8.548;2023-05-10T05:39:48;14.80;99.90
32811;DHT22;65470;47.324;8.548;2023-05-10T05:42:14;14.80;99.90
32811;DHT22;65470;47.324;8.548;2023-05-10T05:44:41;14.80;99.90
32811;DHT22;65470;47.324;8.548;2023-05-10T05:47:07;14.90;99.90
32811;DHT22;65470;47.324;8.548;2023-05-10T05:49:33;14.80;99.90
32811;DHT22;65470;47.324;8.548;2023-05-10T05:51:59;14.90;99.90
32811;DHT22;65470;47.324;8.548;2023-05-10T05:54:26;14.90;99.90
32811;DHT22;65470;47.324;8.548;2023-05-10T05:56:57;14.90;99.90
32811;DHT22;65470;47.324;8.548;2023-05-10T05:59:22;14.90;99.90
32811;DHT22;65470;47.324;8.548;2023-05-10T06:01:48;14.80;99.90
32811;DHT22;65470;47.324;8.548;2023-05-10T06:04:15;14.90;99.90
32811;DHT22;65470;47.324;8.548;2023-05-10T06:06:41;15.00;99.90
32811;DHT22;65470;47.324;8.548;2023-05-10T06:09:08;15.10;99.90
32811;DHT22;65470;47.324;8.548;2023-05-10T06:11:34;15.00;99.90
32811;DHT22;65470;47.324;8.548;2023-05-10T06:14:00;15.10;99.90
32811;DHT22;65470;47.324;8.548;2023-05-10T06:16:25;15.10;99.90
32811;DHT22;65470;47.324;8.548;2023-05-10T06:18:51;15.00;99.90
32811;DHT22;65470;47.324;8.548;2023-05-10T06:21:17;15.00;99.90
32811;DHT22;65470;47.324;8.548;2023-05-10T06:23:42;15.00;99.90
32811;DHT22;65470;47.324;8.548;2023-05-10T06:26:09;15.00;99.90
32811;DHT22;65470;47.324;8.548;2023-05-10T06:28:35;15.10;99.90
32811;DHT22;65470;47.324;8.548;2023-05-10T06:31:03;15.10;99.90
32811;DHT22;65470;47.324;8.548;2023-05-10T06:33:29;15.10;99.90
32811;DHT22;65470;47.324;8.548;2023-05-10T06:35:54;15.10;99.90
32811;DHT22;65470;47.324;8.548;2023-05-10T06:38:20;15.30;99.90
32811;DHT22;65470;47.324;8.548;2023-05-10T06:40:45;15.40;99.90
32811;DHT22;65470;47.324;8.548;2023-05-10T06:43:11;15.50;99.90
32811;DHT22;65470;47.324;8.548;2023-05-10T06:45:37;15.60;99.90
32811;DHT22;65470;47.324;8.548;2023-05-10T06:48:02;15.70;99.90
32811;DHT22;65470;47.324;8.548;2023-05-10T06:50:28;15.60;99.90
32811;DHT22;65470;47.324;8.548;2023-05-10T06:52:54;15.60;99.90
32811;DHT22;65470;47.324;8.548;2023-05-10T06:55:21;15.80;99.90
32811;DHT22;65470;47.324;8.548;2023-05-10T06:57:46;15.90;99.90
32811;DHT22;65470;47.324;8.548;2023-05-10T07:00:13;15.90;99.90
32811;DHT22;65470;47.324;8.548;2023-05-10T07:02:39;15.90;99.90
32811;DHT22;65470;47.324;8.548;2023-05-10T07:05:05;15.90;99.90
32811;DHT22;65470;47.324;8.548;2023-05-10T07:07:31;15.90;99.90
32811;DHT22;65470;47.324;8.548;2023-05-10T07:09:57;15.80;99.90
32811;DHT22;65470;47.324;8.548;2023-05-10T07:12:23;15.80;99.90
32811;DHT22;65470;47.324;8.548;2023-05-10T07:14:49;15.70;99.90
32811;DHT22;65470;47.324;8.548;2023-05-10T07:17:14;15.60;99.90
32811;DHT22;65470;47.324;8.548;2023-05-10T07:19:40;15.60;99.90
32811;DHT22;65470;47.324;8.548;2023-05-10T07:22:06;15.50;99.90
32811;DHT22;65470;47.324;8.548;2023-05-10T07:24:32;15.60;99.90
32811;DHT22;65470;47.324;8.548;2023-05-10T07:26:58;15.60;99.90
32811;DHT22;65470;47.324;8.548;2023-05-10T07:29:24;15.60;99.90
32811;DHT22;65470;47.324;8.548;2023-05-10T07:31:49;15.50;99.90
32811;DHT22;65470;47.324;8.548;2023-05-10T07:34:15;15.30;99.90
32811;DHT22;65470;47.324;8.548;2023-05-10T07:36:41;15.10;99.90
32811;DHT22;65470;47.324;8.548;2023-05-10T07:39:06;14.80;99.90
32811;DHT22;65470;47.324;8.548;2023-05-10T07:41:32;14.60;99.90
32811;DHT22;65470;47.324;8.548;2023-05-10T07:43:58;14.60;99.90
32811;DHT22;65470;47.324;8.548;2023-05-10T07:46:24;14.60;99.90
32811;DHT22;65470;47.324;8.548;2023-05-10T07:48:49;14.60;99.90
32811;DHT22;65470;47.324;8.548;2023-05-10T07:51:15;14.60;99.90
32811;DHT22;65470;47.324;8.548;2023-05-10T07:53:41;14.60;99.90
32811;DHT22;65470;47.324;8.548;2023-05-10T07:56:27;14.60;99.90
32811;DHT22;65470;47.324;8.548;2023-05-10T07:58:55;14.50;99.90
32811;DHT22;65470;47.324;8.548;2023-05-10T08:01:22;14.50;99.90
32811;DHT22;65470;47.324;8.548;2023-05-10T08:03:48;14.50;99.90
32811;DHT22;65470;47.324;8.548;2023-05-10T08:06:14;14.50;99.90
32811;DHT22;65470;47.324;8.548;2023-05-10T08:08:41;14.60;99.90
32811;DHT22;65470;47.324;8.548;2023-05-10T08:11:07;14.60;99.90
32811;DHT22;65470;47.324;8.548;2023-05-10T08:13:32;14.70;99.90
32811;DHT22;65470;47.324;8.548;2023-05-10T08:15:58;14.80;99.90
32811;DHT22;65470;47.324;8.548;2023-05-10T08:18:24;14.80;99.90
32811;DHT22;65470;47.324;8.548;2023-05-10T08:20:50;14.90;99.90
32811;DHT22;65470;47.324;8.548;2023-05-10T08:23:15;15.10;99.90
32811;DHT22;65470;47.324;8.548;2023-05-10T08:25:41;15.20;99.90
32811;DHT22;65470;47.324;8.548;2023-05-10T08:28:06;15.30;99.90
32811;DHT22;65470;47.324;8.548;2023-05-10T08:30:32;15.40;99.90
32811;DHT22;65470;47.324;8.548;2023-05-10T08:32:58;15.50;99.90
32811;DHT22;65470;47.324;8.548;2023-05-10T08:35:23;15.60;99.90
32811;DHT22;65470;47.324;8.548;2023-05-10T08:37:50;15.60;99.90
32811;DHT22;65470;47.324;8.548;2023-05-10T08:40:16;15.70;99.90
32811;DHT22;65470;47.324;8.548;2023-05-10T08:42:51;15.90;99.90
32811;DHT22;65470;47.324;8.548;2023-05-10T08:45:20;16.10;99.90
32811;DHT22;65470;47.324;8.548;2023-05-10T08:47:48;16.20;99.90
32811;DHT22;65470;47.324;8.548;2023-05-10T08:50:15;16.40;99.90
32811;DHT22;65470;47.324;8.548;2023-05-10T08:52:41;16.40;99.90
32811;DHT22;65470;47.324;8.548;2023-05-10T08:55:07;16.50;99.90
32811;DHT22;65470;47.324;8.548;2023-05-10T08:57:33;16.60;99.90
32811;DHT22;65470;47.324;8.548;2023-05-10T09:00:00;16.60;99.90
32811;DHT22;65470;47.324;8.548;2023-05-10T09:02:26;16.60;99.90
32811;DHT22;65470;47.324;8.548;2023-05-10T09:04:52;16.70;99.90
32811;DHT22;65470;47.324;8.548;2023-05-10T09:07:18;16.90;99.90
32811;DHT22;65470;47.324;8.548;2023-05-10T09:09:46;16.80;99.90
32811;DHT22;65470;47.324;8.548;2023-05-10T09:12:13;16.90;99.90
32811;DHT22;65470;47.324;8.548;2023-05-10T09:14:41;16.80;99.90
32811;DHT22;65470;47.324;8.548;2023-05-10T09:17:07;16.80;99.90
32811;DHT22;65470;47.324;8.548;2023-05-10T09:19:33;16.70;99.90
32811;DHT22;65470;47.324;8.548;2023-05-10T09:21:58;16.50;99.90
32811;DHT22;65470;47.324;8.548;2023-05-10T09:24:25;16.30;99.90
32811;DHT22;65470;47.324;8.548;2023-05-10T09:26:52;16.40;99.90
32811;DHT22;65470;47.324;8.548;2023-05-10T09:29:18;16.70;99.90
32811;DHT22;65470;47.324;8.548;2023-05-10T09:31:52;16.70;99.90
32811;DHT22;65470;47.324;8.548;2023-05-10T09:34:29;17.20;99.90
32811;DHT22;65470;47.324;8.548;2023-05-10T09:36:59;17.20;99.90
32811;DHT22;65470;47.324;8.548;2023-05-10T09:39:36;17.10;99.90
32811;DHT22;65470;47.324;8.548;2023-05-10T09:42:09;17.00;99.90
32811;DHT22;65470;47.324;8.548;2023-05-10T09:44:35;17.10;99.90
32811;DHT22;65470;47.324;8.548;2023-05-10T09:47:01;17.20;99.90
32811;DHT22;65470;47.324;8.548;2023-05-10T09:49:27;17.30;99.90
32811;DHT22;65470;47.324;8.548;2023-05-10T09:52:05;17.40;99.90
32811;DHT22;65470;47.324;8.548;2023-05-10T09:54:31;17.20;99.90
32811;DHT22;65470;47.324;8.548;2023-05-10T09:56:57;17.20;99.90
32811;DHT22;65470;47.324;8.548;2023-05-10T09:59:25;17.20;99.90
32811;DHT22;65470;47.324;8.548;2023-05-10T10:01:52;17.20;99.90
32811;DHT22;65470;47.324;8.548;2023-05-10T10:04:17;17.20;99.90
32811;DHT22;65470;47.324;8.548;2023-05-10T10:06:45;17.00;99.90
32811;DHT22;65470;47.324;8.548;2023-05-10T10:09:10;16.90;99.90
32811;DHT22;65470;47.324;8.548;2023-05-10T10:11:37;16.80;99.90
32811;DHT22;65470;47.324;8.548;2023-05-10T10:14:04;16.70;99.90
32811;DHT22;65470;47.324;8.548;2023-05-10T10:16:30;16.60;99.90
32811;DHT22;65470;47.324;8.548;2023-05-10T10:18:57;16.50;99.90
32811;DHT22;65470;47.324;8.548;2023-05-10T10:21:23;16.50;99.90
32811;DHT22;65470;47.324;8.548;2023-05-10T10:23:49;16.50;99.90
32811;DHT22;65470;47.324;8.548;2023-05-10T10:26:16;16.50;99.90
32811;DHT22;65470;47.324;8.548;2023-05-10T10:29:12;16.30;99.90
32811;DHT22;65470;47.324;8.548;2023-05-10T10:31:44;16.30;99.90
32811;DHT22;65470;47.324;8.548;2023-05-10T10:34:27;16.40;99.90
32811;DHT22;65470;47.324;8.548;2023-05-10T10:36:57;16.60;99.90
32811;DHT22;65470;47.324;8.548;2023-05-10T10:39:26;16.50;99.90
32811;DHT22;65470;47.324;8.548;2023-05-10T10:41:56;16.50;99.90
32811;DHT22;65470;47.324;8.548;2023-05-10T10:47:23;16.60;99.90
32811;DHT22;65470;47.324;8.548;2023-05-10T10:52:29;16.90;99.90
32811;DHT22;65470;47.324;8.548;2023-05-10T10:55:13;17.10;99.90
32811;DHT22;65470;47.324;8.548;2023-05-10T10:57:47;17.30;99.90
32811;DHT22;65470;47.324;8.548;2023-05-10T11:03:12;18.10;99.90
32811;DHT22;65470;47.324;8.548;2023-05-10T11:05:50;18.80;99.90
32811;DHT22;65470;47.324;8.548;2023-05-10T11:08:43;19.50;99.90
32811;DHT22;65470;47.324;8.548;2023-05-10T11:11:09;20.10;99.90
32811;DHT22;65470;47.324;8.548;2023-05-10T11:13:45;20.20;99.90
32811;DHT22;65470;47.324;8.548;2023-05-10T11:16:22;20.40;99.90
32811;DHT22;65470;47.324;8.548;2023-05-10T11:18:59;20.30;99.90
32811;DHT22;65470;47.324;8.548;2023-05-10T11:21:27;19.90;99.90
32811;DHT22;65470;47.324;8.548;2023-05-10T11:23:55;19.50;99.90
32811;DHT22;65470;47.324;8.548;2023-05-10T11:26:34;18.80;99.90
32811;DHT22;65470;47.324;8.548;2023-05-10T11:29:01;18.30;99.90
32811;DHT22;65470;47.324;8.548;2023-05-10T11:31:27;17.70;99.90
32811;DHT22;65470;47.324;8.548;2023-05-10T11:33:55;17.10;99.90
32811;DHT22;65470;47.324;8.548;2023-05-10T11:36:55;16.90;99.90
32811;DHT22;65470;47.324;8.548;2023-05-10T11:39:14;16.70;99.90
32811;DHT22;65470;47.324;8.548;2023-05-10T11:41:39;16.50;99.90
32811;DHT22;65470;47.324;8.548;2023-05-10T11:44:05;16.40;99.90
32811;DHT22;65470;47.324;8.548;2023-05-10T11:46:31;16.20;99.90
32811;DHT22;65470;47.324;8.548;2023-05-10T11:49:00;16.00;99.90
32811;DHT22;65470;47.324;8.548;2023-05-10T11:51:27;15.90;99.90
32811;DHT22;65470;47.324;8.548;2023-05-10T11:53:54;16.10;99.90
32811;DHT22;65470;47.324;8.548;2023-05-10T11:56:20;16.10;99.90
32811;DHT22;65470;47.324;8.548;2023-05-10T11:58:55;16.30;99.90
32811;DHT22;65470;47.324;8.548;2023-05-10T12:01:22;16.20;99.90
32811;DHT22;65470;47.324;8.548;2023-05-10T12:03:50;16.00;99.90
32811;DHT22;65470;47.324;8.548;2023-05-10T12:06:16;15.70;99.90
32811;DHT22;65470;47.324;8.548;2023-05-10T12:08:47;15.50;99.90
32811;DHT22;65470;47.324;8.548;2023-05-10T12:11:13;15.50;99.90
32811;DHT22;65470;47.324;8.548;2023-05-10T12:13:43;15.40;99.90
32811;DHT22;65470;47.324;8.548;2023-05-10T12:16:18;15.20;99.90
32811;DHT22;65470;47.324;8.548;2023-05-10T12:18:44;15.30;99.90
32811;DHT22;65470;47.324;8.548;2023-05-10T12:21:13;15.40;99.90
32811;DHT22;65470;47.324;8.548;2023-05-10T12:23:39;15.60;99.90
32811;DHT22;65470;47.324;8.548;2023-05-10T12:26:05;15.40;99.90
32811;DHT22;65470;47.324;8.548;2023-05-10T12:28:32;15.10;99.90
32811;DHT22;65470;47.324;8.548;2023-05-10T12:30:59;15.30;99.90
32811;DHT22;65470;47.324;8.548;2023-05-10T12:33:25;15.50;99.90
32811;DHT22;65470;47.324;8.548;2023-05-10T12:35:52;15.70;99.90
32811;DHT22;65470;47.324;8.548;2023-05-10T12:40:50;15.70;99.90
32811;DHT22;65470;47.324;8.548;2023-05-10T12:43:16;15.90;99.90
32811;DHT22;65470;47.324;8.548;2023-05-10T12:45:41;15.70;99.90
32811;DHT22;65470;47.324;8.548;2023-05-10T12:48:07;16.10;99.90
32811;DHT22;65470;47.324;8.548;2023-05-10T12:50:32;16.50;99.90
32811;DHT22;65470;47.324;8.548;2023-05-10T12:52:58;16.70;99.90
32811;DHT22;65470;47.324;8.548;2023-05-10T12:55:23;16.70;99.90
32811;DHT22;65470;47.324;8.548;2023-05-10T12:57:49;16.50;99.90
32811;DHT22;65470;47.324;8.548;2023-05-10T13:00:15;16.70;99.90
32811;DHT22;65470;47.324;8.548;2023-05-10T13:02:41;16.70;99.90
32811;DHT22;65470;47.324;8.548;2023-05-10T13:05:07;17.00;99.90
32811;DHT22;65470;47.324;8.548;2023-05-10T13:07:32;17.70;99.90
32811;DHT22;65470;47.324;8.548;2023-05-10T13:09:58;17.90;99.90
32811;DHT22;65470;47.324;8.548;2023-05-10T13:12:23;17.70;99.90
32811;DHT22;65470;47.324;8.548;2023-05-10T13:14:49;17.40;99.90
32811;DHT22;65470;47.324;8.548;2023-05-10T13:17:15;17.00;99.90
32811;DHT22;65470;47.324;8.548;2023-05-10T13:19:40;17.10;99.90
32811;DHT22;65470;47.324;8.548;2023-05-10T13:22:06;17.10;99.90
32811;DHT22;65470;47.324;8.548;2023-05-10T13:24:31;17.00;99.90
32811;DHT22;65470;47.324;8.548;2023-05-10T13:26:57;16.70;99.90
32811;DHT22;65470;47.324;8.548;2023-05-10T13:29:23;17.10;99.90
32811;DHT22;65470;47.324;8.548;2023-05-10T13:31:49;17.10;99.90
32811;DHT22;65470;47.324;8.548;2023-05-10T13:34:14;17.30;99.90
32811;DHT22;65470;47.324;8.548;2023-05-10T13:36:40;17.50;99.90
32811;DHT22;65470;47.324;8.548;2023-05-10T13:39:06;17.50;99.90
32811;DHT22;65470;47.324;8.548;2023-05-10T13:41:32;17.40;99.90
32811;DHT22;65470;47.324;8.548;2023-05-10T13:43:57;17.50;99.90
32811;DHT22;65470;47.324;8.548;2023-05-10T13:46:23;17.80;99.90
32811;DHT22;65470;47.324;8.548;2023-05-10T13:48:48;17.80;99.90
32811;DHT22;65470;47.324;8.548;2023-05-10T13:51:14;17.90;99.90
32811;DHT22;65470;47.324;8.548;2023-05-10T13:53:40;18.20;99.90
32811;DHT22;65470;47.324;8.548;2023-05-10T13:56:05;18.10;99.90
32811;DHT22;65470;47.324;8.548;2023-05-10T13:58:31;17.80;99.90
32811;DHT22;65470;47.324;8.548;2023-05-10T14:00:57;17.60;99.90
32811;DHT22;65470;47.324;8.548;2023-05-10T14:03:23;17.30;99.90
32811;DHT22;65470;47.324;8.548;2023-05-10T14:05:48;17.20;99.90
32811;DHT22;65470;47.324;8.548;2023-05-10T14:08:14;16.90;99.90
32811;DHT22;65470;47.324;8.548;2023-05-10T14:10:40;16.90;99.90
32811;DHT22;65470;47.324;8.548;2023-05-10T14:13:05;16.90;99.90
32811;DHT22;65470;47.324;8.548;2023-05-10T14:15:31;17.00;99.90
32811;DHT22;65470;47.324;8.548;2023-05-10T14:17:57;17.20;99.90
32811;DHT22;65470;47.324;8.548;2023-05-10T14:20:23;17.50;99.90
32811;DHT22;65470;47.324;8.548;2023-05-10T14:22:48;17.40;99.90
32811;DHT22;65470;47.324;8.548;2023-05-10T14:25:14;17.70;99.90
32811;DHT22;65470;47.324;8.548;2023-05-10T14:27:40;17.80;99.90
32811;DHT22;65470;47.324;8.548;2023-05-10T14:30:06;17.50;99.90
32811;DHT22;65470;47.324;8.548;2023-05-10T14:32:32;17.60;99.90
32811;DHT22;65470;47.324;8.548;2023-05-10T14:34:57;17.60;99.90
32811;DHT22;65470;47.324;8.548;2023-05-10T14:37:23;17.60;99.90
32811;DHT22;65470;47.324;8.548;2023-05-10T14:39:49;17.50;99.90
32811;DHT22;65470;47.324;8.548;2023-05-10T14:42:14;17.70;99.90
32811;DHT22;65470;47.324;8.548;2023-05-10T14:44:40;17.90;99.90
32811;DHT22;65470;47.324;8.548;2023-05-10T14:47:05;17.70;99.90
32811;DHT22;65470;47.324;8.548;2023-05-10T14:49:31;17.80;99.90
32811;DHT22;65470;47.324;8.548;2023-05-10T14:51:56;17.80;99.90
32811;DHT22;65470;47.324;8.548;2023-05-10T14:54:22;17.90;99.90
32811;DHT22;65470;47.324;8.548;2023-05-10T14:56:48;18.10;99.90
32811;DHT22;65470;47.324;8.548;2023-05-10T14:59:15;17.80;99.90
32811;DHT22;65470;47.324;8.548;2023-05-10T15:01:40;17.80;99.90
32811;DHT22;65470;47.324;8.548;2023-05-10T15:04:07;17.90;99.90
32811;DHT22;65470;47.324;8.548;2023-05-10T15:06:34;18.00;99.90
32811;DHT22;65470;47.324;8.548;2023-05-10T15:09:01;17.90;99.90
32811;DHT22;65470;47.324;8.548;2023-05-10T15:11:28;17.70;99.90
32811;DHT22;65470;47.324;8.548;2023-05-10T15:13:54;17.50;99.90
32811;DHT22;65470;47.324;8.548;2023-05-10T15:16:20;17.40;99.90
32811;DHT22;65470;47.324;8.548;2023-05-10T15:18:46;17.20;99.90
32811;DHT22;65470;47.324;8.548;2023-05-10T15:21:12;17.30;99.90
32811;DHT22;65470;47.324;8.548;2023-05-10T15:23:37;17.10;99.90
32811;DHT22;65470;47.324;8.548;2023-05-10T15:26:03;16.90;99.90
32811;DHT22;65470;47.324;8.548;2023-05-10T15:28:29;16.50;99.90
32811;DHT22;65470;47.324;8.548;2023-05-10T15:30:55;16.50;99.90
32811;DHT22;65470;47.324;8.548;2023-05-10T15:33:21;16.30;99.90
32811;DHT22;65470;47.324;8.548;2023-05-10T15:35:47;15.90;99.90
32811;DHT22;65470;47.324;8.548;2023-05-10T15:38:12;15.60;99.90
32811;DHT22;65470;47.324;8.548;2023-05-10T15:40:38;15.40;99.90
32811;DHT22;65470;47.324;8.548;2023-05-10T15:43:04;15.40;99.90
32811;DHT22;65470;47.324;8.548;2023-05-10T15:45:30;15.40;99.90
32811;DHT22;65470;47.324;8.548;2023-05-10T15:47:57;15.50;99.90
32811;DHT22;65470;47.324;8.548;2023-05-10T15:50:23;15.70;99.90
32811;DHT22;65470;47.324;8.548;2023-05-10T15:52:48;15.80;99.90
32811;DHT22;65470;47.324;8.548;2023-05-10T15:55:14;16.00;99.90
32811;DHT22;65470;47.324;8.548;2023-05-10T15:57:40;15.90;99.90
32811;DHT22;65470;47.324;8.548;2023-05-10T16:00:09;16.10;99.90
32811;DHT22;65470;47.324;8.548;2023-05-10T16:02:35;16.30;99.90
32811;DHT22;65470;47.324;8.548;2023-05-10T16:05:01;16.60;99.90